sensor_id;sensor_type;location;lat;lon;timestamp;temperature;humidity
41944;DHT22;27636;52.610;13.244;2024-03-06T00:02:28;-1.00;99.90
41944;DHT22;27636;52.610;13.244;2024-03-06T00:07:32;-1.30;99.90
41944;DHT22;27636;52.610;13.244;2024-03-06T00:12:36;-1.20;99.90
41944;DHT22;27636;52.610;13.244;2024-03-06T00:17:41;-1.30;99.90
41944;DHT22;27636;52.610;13.244;2024-03-06T00:22:45;-1.10;99.90
41944;DHT22;27636;52.610;13.244;2024-03-06T00:27:49;-1.10;99.90
41944;DHT22;27636;52.610;13.244;2024-03-06T00:32:54;-1.20;99.90
41944;DHT22;27636;52.610;13.244;2024-03-06T00:37:58;-1.20;99.90
41944;DHT22;27636;52.610;13.244;2024-03-06T00:43:06;-1.20;99.90
41944;DHT22;27636;52.610;13.244;2024-03-06T00:48:11;-1.20;99.90
41944;DHT22;27636;52.610;13.244;2024-03-06T00:53:16;-1.40;99.90
41944;DHT22;27636;52.610;13.244;2024-03-06T00:58:20;-1.50;99.90
41944;DHT22;27636;52.610;13.244;2024-03-06T01:03:25;-1.40;99.90
41944;DHT22;27636;52.610;13.244;2024-03-06T01:08:28;-1.50;99.90
41944;DHT22;27636;52.610;13.244;2024-03-06T01:13:34;-1.50;99.90
41944;DHT22;27636;52.610;13.244;2024-03-06T01:18:39;-1.50;99.90
41944;DHT22;27636;52.610;13.244;2024-03-06T01:23:42;-1.40;99.90
41944;DHT22;27636;52.610;13.244;2024-03-06T01:28:47;-1.50;99.90
41944;DHT22;27636;52.610;13.244;2024-03-06T01:33:52;-1.60;99.90
41944;DHT22;27636;52.610;13.244;2024-03-06T01:38:56;-1.60;99.90
41944;DHT22;27636;52.610;13.244;2024-03-06T01:44:01;-1.60;99.90
41944;DHT22;27636;52.610;13.244;2024-03-06T01:49:07;-1.60;99.90
41944;DHT22;27636;52.610;13.244;2024-03-06T01:54:11;-1.50;99.90
41944;DHT22;27636;52.610;13.244;2024-03-06T01:59:15;-1.50;99.90
41944;DHT22;27636;52.610;13.244;2024-03-06T02:04:36;-1.60;99.90
41944;DHT22;27636;52.610;13.244;2024-03-06T02:09:40;-1.50;99.90
41944;DHT22;27636;52.610;13.244;2024-03-06T02:14:44;-1.60;99.90
41944;DHT22;27636;52.610;13.244;2024-03-06T02:19:50;-1.70;99.90
41944;DHT22;27636;52.610;13.244;2024-03-06T02:24:55;-1.60;99.90
41944;DHT22;27636;52.610;13.244;2024-03-06T02:29:59;-1.70;99.90
41944;DHT22;27636;52.610;13.244;2024-03-06T02:35:03;-1.70;99.90
41944;DHT22;27636;52.610;13.244;2024-03-06T02:40:13;-1.70;99.90
41944;DHT22;27636;52.610;13.244;2024-03-06T02:45:18;-1.70;99.90
41944;DHT22;27636;52.610;13.244;2024-03-06T02:50:22;-1.70;99.90
41944;DHT22;27636;52.610;13.244;2024-03-06T02:55:28;-1.70;99.90
41944;DHT22;27636;52.610;13.244;2024-03-06T03:00:32;-1.80;99.90
41944;DHT22;27636;52.610;13.244;2024-03-06T03:05:36;-1.80;99.90
41944;DHT22;27636;52.610;13.244;2024-03-06T03:10:42;-1.70;99.90
41944;DHT22;27636;52.610;13.244;2024-03-06T03:15:45;-1.80;99.90
41944;DHT22;27636;52.610;13.244;2024-03-06T03:20:52;-1.80;99.90
41944;DHT22;27636;52.610;13.244;2024-03-06T03:25:56;-1.80;99.90
41944;DHT22;27636;52.610;13.244;2024-03-06T03:31:00;-1.90;99.90
41944;DHT22;27636;52.610;13.244;2024-03-06T03:36:05;-1.90;99.90
41944;DHT22;27636;52.610;13.244;2024-03-06T03:41:12;-1.90;99.90
41944;DHT22;27636;52.610;13.244;2024-03-06T03:46:16;-2.00;99.90
41944;DHT22;27636;52.610;13.244;2024-03-06T03:51:20;-2.00;99.90
41944;DHT22;27636;52.610;13.244;2024-03-06T03:56:25;-1.90;99.90
41944;DHT22;27636;52.610;13.244;2024-03-06T04:01:29;-2.00;99.90
41944;DHT22;27636;52.610;13.244;2024-03-06T04:06:33;-1.90;99.90
41944;DHT22;27636;52.610;13.244;2024-03-06T04:11:39;-1.90;99.90
41944;DHT22;27636;52.610;13.244;2024-03-06T04:16:43;-2.10;99.90
41944;DHT22;27636;52.610;13.244;2024-03-06T04:21:48;-2.00;99.90
41944;DHT22;27636;52.610;13.244;2024-03-06T04:26:53;-2.10;99.90
41944;DHT22;27636;52.610;13.244;2024-03-06T04:31:57;-2.10;99.90
41944;DHT22;27636;52.610;13.244;2024-03-06T04:37:01;-2.00;99.90
41944;DHT22;27636;52.610;13.244;2024-03-06T04:42:07;-2.00;99.90
41944;DHT22;27636;52.610;13.244;2024-03-06T04:47:10;-2.10;99.90
41944;DHT22;27636;52.610;13.244;2024-03-06T04:52:14;-2.10;99.90
41944;DHT22;27636;52.610;13.244;2024-03-06T04:57:19;-2.10;99.90
41944;DHT22;27636;52.610;13.244;2024-03-06T05:02:23;-2.30;99.90
41944;DHT22;27636;52.610;13.244;2024-03-06T05:07:27;-2.30;99.90
41944;DHT22;27636;52.610;13.244;2024-03-06T05:12:50;-2.50;99.90
41944;DHT22;27636;52.610;13.244;2024-03-06T05:18:11;-2.50;99.90
41944;DHT22;27636;52.610;13.244;2024-03-06T05:23:32;-2.50;99.90
41944;DHT22;27636;52.610;13.244;2024-03-06T05:28:54;-2.50;99.90
41944;DHT22;27636;52.610;13.244;2024-03-06T05:34:16;-2.50;99.90
41944;DHT22;27636;52.610;13.244;2024-03-06T05:39:37;-2.50;99.90
41944;DHT22;27636;52.610;13.244;2024-03-06T05:45:00;-2.50;99.90
41944;DHT22;27636;52.610;13.244;2024-03-06T05:50:25;-2.40;99.90
41944;DHT22;27636;52.610;13.244;2024-03-06T05:55:47;-2.30;99.90
41944;DHT22;27636;52.610;13.244;2024-03-06T06:01:09;-2.40;99.90
41944;DHT22;27636;52.610;13.244;2024-03-06T06:06:14;-2.30;99.90
41944;DHT22;27636;52.610;13.244;2024-03-06T06:11:18;-2.20;99.90
41944;DHT22;27636;52.610;13.244;2024-03-06T06:16:24;-2.00;99.90
41944;DHT22;27636;52.610;13.244;2024-03-06T06:21:27;-2.00;99.90
41944;DHT22;27636;52.610;13.244;2024-03-06T06:26:31;-1.70;99.90
41944;DHT22;27636;52.610;13.244;2024-03-06T06:31:37;-1.20;99.90
41944;DHT22;27636;52.610;13.244;2024-03-06T06:36:45;-0.90;99.90
41944;DHT22;27636;52.610;13.244;2024-03-06T06:41:49;-0.70;99.90
41944;DHT22;27636;52.610;13.244;2024-03-06T06:46:54;-0.50;99.90
41944;DHT22;27636;52.610;13.244;2024-03-06T06:51:58;-0.50;99.90
41944;DHT22;27636;52.610;13.244;2024-03-06T06:57:02;-0.50;99.90
41944;DHT22;27636;52.610;13.244;2024-03-06T07:02:08;-0.40;99.90
41944;DHT22;27636;52.610;13.244;2024-03-06T07:07:12;-0.30;99.90
41944;DHT22;27636;52.610;13.244;2024-03-06T07:12:18;-0.20;99.90
41944;DHT22;27636;52.610;13.244;2024-03-06T07:17:23;-0.10;99.90
41944;DHT22;27636;52.610;13.244;2024-03-06T07:22:27;0.40;99.90
41944;DHT22;27636;52.610;13.244;2024-03-06T07:27:31;1.40;99.90
41944;DHT22;27636;52.610;13.244;2024-03-06T07:32:38;3.10;99.90
41944;DHT22;27636;52.610;13.244;2024-03-06T07:37:44;4.60;99.90
41944;DHT22;27636;52.610;13.244;2024-03-06T07:42:48;5.50;99.90
41944;DHT22;27636;52.610;13.244;2024-03-06T07:47:54;6.80;99.90
41944;DHT22;27636;52.610;13.244;2024-03-06T07:52:58;7.60;99.90
41944;DHT22;27636;52.610;13.244;2024-03-06T07:58:03;8.50;99.90
41944;DHT22;27636;52.610;13.244;2024-03-06T08:03:08;8.80;99.90
41944;DHT22;27636;52.610;13.244;2024-03-06T08:08:12;8.90;99.90
41944;DHT22;27636;52.610;13.244;2024-03-06T08:13:16;8.80;99.90
41944;DHT22;27636;52.610;13.244;2024-03-06T08:18:23;8.60;99.90
41944;DHT22;27636;52.610;13.244;2024-03-06T08:23:28;8.80;99.90
41944;DHT22;27636;52.610;13.244;2024-03-06T08:28:33;8.60;99.90
41944;DHT22;27636;52.610;13.244;2024-03-06T08:33:39;9.80;99.90
41944;DHT22;27636;52.610;13.244;2024-03-06T08:38:43;10.90;99.90
41944;DHT22;27636;52.610;13.244;2024-03-06T08:43:46;12.00;96.10
41944;DHT22;27636;52.610;13.244;2024-03-06T08:48:53;11.00;94.80
41944;DHT22;27636;52.610;13.244;2024-03-06T08:53:57;10.70;96.90
41944;DHT22;27636;52.610;13.244;2024-03-06T08:59:03;11.00;96.60
41944;DHT22;27636;52.610;13.244;2024-03-06T09:04:08;11.30;93.90
41944;DHT22;27636;52.610;13.244;2024-03-06T09:09:11;10.70;93.70
41944;DHT22;27636;52.610;13.244;2024-03-06T09:14:18;10.60;94.20
41944;DHT22;27636;52.610;13.244;2024-03-06T09:19:23;11.00;93.70
41944;DHT22;27636;52.610;13.244;2024-03-06T09:24:27;11.20;92.20
41944;DHT22;27636;52.610;13.244;2024-03-06T09:29:31;10.30;93.80
41944;DHT22;27636;52.610;13.244;2024-03-06T09:34:37;9.70;95.10
41944;DHT22;27636;52.610;13.244;2024-03-06T09:39:41;9.90;95.70
41944;DHT22;27636;52.610;13.244;2024-03-06T09:44:45;11.70;92.60
41944;DHT22;27636;52.610;13.244;2024-03-06T09:49:53;12.80;90.10
41944;DHT22;27636;52.610;13.244;2024-03-06T09:55:00;11.70;89.90
41944;DHT22;27636;52.610;13.244;2024-03-06T10:00:08;10.20;92.80
41944;DHT22;27636;52.610;13.244;2024-03-06T10:05:23;10.00;93.60
41944;DHT22;27636;52.610;13.244;2024-03-06T10:10:27;9.80;95.50
41944;DHT22;27636;52.610;13.244;2024-03-06T10:15:32;8.50;96.90
41944;DHT22;27636;52.610;13.244;2024-03-06T10:20:42;8.20;98.50
41944;DHT22;27636;52.610;13.244;2024-03-06T10:25:48;7.60;99.80
41944;DHT22;27636;52.610;13.244;2024-03-06T10:31:03;7.60;99.90
41944;DHT22;27636;52.610;13.244;2024-03-06T10:36:11;7.40;99.90
41944;DHT22;27636;52.610;13.244;2024-03-06T10:41:15;7.50;99.90
41944;DHT22;27636;52.610;13.244;2024-03-06T10:46:26;7.70;99.90
41944;DHT22;27636;52.610;13.244;2024-03-06T10:51:35;7.90;99.90
41944;DHT22;27636;52.610;13.244;2024-03-06T10:56:40;8.00;99.90
41944;DHT22;27636;52.610;13.244;2024-03-06T11:01:46;7.90;99.90
41944;DHT22;27636;52.610;13.244;2024-03-06T11:06:52;7.70;99.90
41944;DHT22;27636;52.610;13.244;2024-03-06T11:11:56;8.50;99.90
41944;DHT22;27636;52.610;13.244;2024-03-06T11:17:05;8.40;99.90
41944;DHT22;27636;52.610;13.244;2024-03-06T11:22:12;9.80;98.90
41944;DHT22;27636;52.610;13.244;2024-03-06T11:27:16;9.40;99.20
41944;DHT22;27636;52.610;13.244;2024-03-06T11:32:23;8.90;98.40
41944;DHT22;27636;52.610;13.244;2024-03-06T11:37:28;8.00;99.40
41944;DHT22;27636;52.610;13.244;2024-03-06T11:42:33;8.60;99.10
41944;DHT22;27636;52.610;13.244;2024-03-06T11:47:55;9.40;99.90
41944;DHT22;27636;52.610;13.244;2024-03-06T11:53:01;9.60;98.70
41944;DHT22;27636;52.610;13.244;2024-03-06T11:58:05;9.00;98.70
41944;DHT22;27636;52.610;13.244;2024-03-06T12:03:11;9.30;97.50
41944;DHT22;27636;52.610;13.244;2024-03-06T12:08:20;8.90;98.90
41944;DHT22;27636;52.610;13.244;2024-03-06T12:13:24;9.30;98.40
41944;DHT22;27636;52.610;13.244;2024-03-06T12:18:28;9.80;96.80
41944;DHT22;27636;52.610;13.244;2024-03-06T12:23:34;11.80;94.30
41944;DHT22;27636;52.610;13.244;2024-03-06T12:28:39;10.80;92.60
41944;DHT22;27636;52.610;13.244;2024-03-06T12:33:43;10.80;94.80
41944;DHT22;27636;52.610;13.244;2024-03-06T12:38:55;10.50;93.90
41944;DHT22;27636;52.610;13.244;2024-03-06T12:43:59;9.40;94.40
41944;DHT22;27636;52.610;13.244;2024-03-06T12:49:05;10.60;95.80
41944;DHT22;27636;52.610;13.244;2024-03-06T12:54:12;11.40;92.10
41944;DHT22;27636;52.610;13.244;2024-03-06T12:59:16;11.50;89.90
41944;DHT22;27636;52.610;13.244;2024-03-06T13:04:20;10.30;91.50
41944;DHT22;27636;52.610;13.244;2024-03-06T13:09:25;10.50;90.90
41944;DHT22;27636;52.610;13.244;2024-03-06T13:14:29;9.90;91.90
41944;DHT22;27636;52.610;13.244;2024-03-06T13:19:34;9.50;93.10
41944;DHT22;27636;52.610;13.244;2024-03-06T13:24:39;9.10;95.20
41944;DHT22;27636;52.610;13.244;2024-03-06T13:29:47;9.00;95.30
41944;DHT22;27636;52.610;13.244;2024-03-06T13:34:51;9.00;95.90
41944;DHT22;27636;52.610;13.244;2024-03-06T13:39:57;8.50;95.20
41944;DHT22;27636;52.610;13.244;2024-03-06T13:45:05;8.40;97.40
41944;DHT22;27636;52.610;13.244;2024-03-06T13:50:11;9.70;95.60
41944;DHT22;27636;52.610;13.244;2024-03-06T13:55:17;11.00;92.80
41944;DHT22;27636;52.610;13.244;2024-03-06T14:00:21;10.80;90.30
41944;DHT22;27636;52.610;13.244;2024-03-06T14:05:26;10.40;91.60
41944;DHT22;27636;52.610;13.244;2024-03-06T14:10:31;9.60;92.70
41944;DHT22;27636;52.610;13.244;2024-03-06T14:15:37;9.00;93.50
41944;DHT22;27636;52.610;13.244;2024-03-06T14:20:43;8.90;94.10
41944;DHT22;27636;52.610;13.244;2024-03-06T14:25:50;9.10;92.80
41944;DHT22;27636;52.610;13.244;2024-03-06T14:30:54;8.70;92.50
41944;DHT22;27636;52.610;13.244;2024-03-06T14:35:59;8.70;93.10
41944;DHT22;27636;52.610;13.244;2024-03-06T14:41:05;8.50;93.70
41944;DHT22;27636;52.610;13.244;2024-03-06T14:46:10;8.40;94.40
41944;DHT22;27636;52.610;13.244;2024-03-06T14:51:14;8.10;95.00
41944;DHT22;27636;52.610;13.244;2024-03-06T14:56:23;8.20;95.50
41944;DHT22;27636;52.610;13.244;2024-03-06T15:01:28;8.30;95.30
41944;DHT22;27636;52.610;13.244;2024-03-06T15:06:32;8.30;94.40
41944;DHT22;27636;52.610;13.244;2024-03-06T15:11:39;8.30;94.10
41944;DHT22;27636;52.610;13.244;2024-03-06T15:16:43;8.30;94.00
41944;DHT22;27636;52.610;13.244;2024-03-06T15:21:48;8.50;93.30
41944;DHT22;27636;52.610;13.244;2024-03-06T15:26:54;8.40;93.70
41944;DHT22;27636;52.610;13.244;2024-03-06T15:31:58;8.40;94.00
41944;DHT22;27636;52.610;13.244;2024-03-06T15:37:04;8.30;94.40
41944;DHT22;27636;52.610;13.244;2024-03-06T15:42:11;8.40;95.10
41944;DHT22;27636;52.610;13.244;2024-03-06T15:47:16;8.20;95.70
41944;DHT22;27636;52.610;13.244;2024-03-06T15:52:21;8.10;96.40
41944;DHT22;27636;52.610;13.244;2024-03-06T15:57:26;8.10;96.90
41944;DHT22;27636;52.610;13.244;2024-03-06T16:02:31;8.00;96.90
41944;DHT22;27636;52.610;13.244;2024-03-06T16:07:35;8.00;97.80
41944;DHT22;27636;52.610;13.244;2024-03-06T16:12:51;7.90;98.00
41944;DHT22;27636;52.610;13.244;2024-03-06T16:18:00;7.70;98.60
41944;DHT22;27636;52.610;13.244;2024-03-06T16:23:04;7.80;99.80
41944;DHT22;27636;52.610;13.244;2024-03-06T16:28:11;7.80;99.70
41944;DHT22;27636;52.610;13.244;2024-03-06T16:33:15;7.60;99.70
41944;DHT22;27636;52.610;13.244;2024-03-06T16:38:21;7.50;99.90
41944;DHT22;27636;52.610;13.244;2024-03-06T16:43:27;7.40;99.90
41944;DHT22;27636;52.610;13.244;2024-03-06T16:48:31;7.40;99.90
41944;DHT22;27636;52.610;13.244;2024-03-06T16:53:35;7.40;99.90
41944;DHT22;27636;52.610;13.244;2024-03-06T16:58:41;7.40;99.90
41944;DHT22;27636;52.610;13.244;2024-03-06T17:03:45;7.40;99.90
41944;DHT22;27636;52.610;13.244;2024-03-06T17:08:49;7.20;99.90
41944;DHT22;27636;52.610;13.244;2024-03-06T17:13:54;7.10;99.90
41944;DHT22;27636;52.610;13.244;2024-03-06T17:18:58;7.00;99.90
41944;DHT22;27636;52.610;13.244;2024-03-06T17:24:06;7.10;99.90
41944;DHT22;27636;52.610;13.244;2024-03-06T17:29:12;7.10;99.90
41944;DHT22;27636;52.610;13.244;2024-03-06T17:34:15;7.10;99.90
41944;DHT22;27636;52.610;13.244;2024-03-06T17:39:19;7.20;99.90
41944;DHT22;27636;52.610;13.244;2024-03-06T17:44:31;7.10;99.90
41944;DHT22;27636;52.610;13.244;2024-03-06T17:49:37;6.90;99.90
41944;DHT22;27636;52.610;13.244;2024-03-06T17:54:42;7.10;99.90
41944;DHT22;27636;52.610;13.244;2024-03-06T17:59:47;7.00;99.90
41944;DHT22;27636;52.610;13.244;2024-03-06T18:04:52;7.00;99.90
41944;DHT22;27636;52.610;13.244;2024-03-06T18:09:56;7.20;99.90
41944;DHT22;27636;52.610;13.244;2024-03-06T18:15:03;7.00;99.90
41944;DHT22;27636;52.610;13.244;2024-03-06T18:20:07;7.00;99.90
41944;DHT22;27636;52.610;13.244;2024-03-06T18:25:13;7.00;99.90
41944;DHT22;27636;52.610;13.244;2024-03-06T18:30:20;6.90;99.90
41944;DHT22;27636;52.610;13.244;2024-03-06T18:35:24;7.00;99.90
41944;DHT22;27636;52.610;13.244;2024-03-06T18:40:28;6.90;99.90
41944;DHT22;27636;52.610;13.244;2024-03-06T18:45:33;6.70;99.90
41944;DHT22;27636;52.610;13.244;2024-03-06T18:50:38;6.90;99.90
41944;DHT22;27636;52.610;13.244;2024-03-06T18:55:42;6.90;99.90
41944;DHT22;27636;52.610;13.244;2024-03-06T19:00:48;6.90;99.90
41944;DHT22;27636;52.610;13.244;2024-03-06T19:05:55;6.80;99.90
41944;DHT22;27636;52.610;13.244;2024-03-06T19:10:59;6.80;99.90
41944;DHT22;27636;52.610;13.244;2024-03-06T19:16:06;6.90;99.90
41944;DHT22;27636;52.610;13.244;2024-03-06T19:21:14;6.80;99.90
41944;DHT22;27636;52.610;13.244;2024-03-06T19:26:18;6.80;99.90
41944;DHT22;27636;52.610;13.244;2024-03-06T19:31:23;6.90;99.90
41944;DHT22;27636;52.610;13.244;2024-03-06T19:36:27;6.70;99.90
41944;DHT22;27636;52.610;13.244;2024-03-06T19:41:31;6.70;99.90
41944;DHT22;27636;52.610;13.244;2024-03-06T19:46:37;6.90;99.90
41944;DHT22;27636;52.610;13.244;2024-03-06T19:51:41;6.70;99.90
41944;DHT22;27636;52.610;13.244;2024-03-06T19:56:49;6.70;99.90
41944;DHT22;27636;52.610;13.244;2024-03-06T20:01:59;6.70;99.90
41944;DHT22;27636;52.610;13.244;2024-03-06T20:07:04;6.60;99.90
41944;DHT22;27636;52.610;13.244;2024-03-06T20:12:08;6.60;99.90
41944;DHT22;27636;52.610;13.244;2024-03-06T20:17:14;6.50;99.90
41944;DHT22;27636;52.610;13.244;2024-03-06T20:22:19;6.40;99.90
41944;DHT22;27636;52.610;13.244;2024-03-06T20:27:23;6.40;99.90
41944;DHT22;27636;52.610;13.244;2024-03-06T20:32:32;6.40;99.90
41944;DHT22;27636;52.610;13.244;2024-03-06T20:37:35;6.30;99.90
41944;DHT22;27636;52.610;13.244;2024-03-06T20:42:40;6.20;99.90
41944;DHT22;27636;52.610;13.244;2024-03-06T20:47:46;6.20;99.90
41944;DHT22;27636;52.610;13.244;2024-03-06T20:52:50;6.30;99.90
41944;DHT22;27636;52.610;13.244;2024-03-06T20:57:55;6.30;99.90
41944;DHT22;27636;52.610;13.244;2024-03-06T21:03:03;6.20;99.90
41944;DHT22;27636;52.610;13.244;2024-03-06T21:08:07;6.20;99.90
41944;DHT22;27636;52.610;13.244;2024-03-06T21:13:14;6.10;99.90
41944;DHT22;27636;52.610;13.244;2024-03-06T21:18:20;6.20;99.90
41944;DHT22;27636;52.610;13.244;2024-03-06T21:23:24;6.20;99.90
41944;DHT22;27636;52.610;13.244;2024-03-06T21:28:29;6.10;99.90
41944;DHT22;27636;52.610;13.244;2024-03-06T21:33:38;6.20;99.90
41944;DHT22;27636;52.610;13.244;2024-03-06T21:38:43;6.10;99.90
41944;DHT22;27636;52.610;13.244;2024-03-06T21:43:51;6.10;99.90
41944;DHT22;27636;52.610;13.244;2024-03-06T21:49:04;6.10;99.90
41944;DHT22;27636;52.610;13.244;2024-03-06T21:54:10;6.20;99.90
41944;DHT22;27636;52.610;13.244;2024-03-06T21:59:15;6.20;99.90
41944;DHT22;27636;52.610;13.244;2024-03-06T22:04:22;6.10;99.90
41944;DHT22;27636;52.610;13.244;2024-03-06T22:09:26;6.20;99.90
41944;DHT22;27636;52.610;13.244;2024-03-06T22:14:31;6.20;99.90
41944;DHT22;27636;52.610;13.244;2024-03-06T22:19:36;6.30;99.90
41944;DHT22;27636;52.610;13.244;2024-03-06T22:24:40;6.20;99.90
41944;DHT22;27636;52.610;13.244;2024-03-06T22:29:44;6.20;99.90
41944;DHT22;27636;52.610;13.244;2024-03-06T22:34:49;6.30;99.90
41944;DHT22;27636;52.610;13.244;2024-03-06T22:39:55;6.30;99.90
41944;DHT22;27636;52.610;13.244;2024-03-06T22:44:59;6.20;99.90
41944;DHT22;27636;52.610;13.244;2024-03-06T22:50:05;6.30;99.90
41944;DHT22;27636;52.610;13.244;2024-03-06T22:55:09;6.30;99.90
41944;DHT22;27636;52.610;13.244;2024-03-06T23:00:14;6.20;99.90
41944;DHT22;27636;52.610;13.244;2024-03-06T23:05:27;6.10;99.90
41944;DHT22;27636;52.610;13.244;2024-03-06T23:10:31;6.30;99.90
41944;DHT22;27636;52.610;13.244;2024-03-06T23:15:35;6.20;99.90
41944;DHT22;27636;52.610;13.244;2024-03-06T23:20:42;6.30;99.90
41944;DHT22;27636;52.610;13.244;2024-03-06T23:25:46;6.30;99.90
41944;DHT22;27636;52.610;13.244;2024-03-06T23:30:51;6.30;99.90
41944;DHT22;27636;52.610;13.244;2024-03-06T23:35:57;6.20;99.90
41944;DHT22;27636;52.610;13.244;2024-03-06T23:41:01;6.20;99.90
41944;DHT22;27636;52.610;13.244;2024-03-06T23:46:05;6.00;99.90
41944;DHT22;27636;52.610;13.244;2024-03-06T23:51:10;6.10;99.90
41944;DHT22;27636;52.610;13.244;2024-03-06T23:56:14;6.20;99.90
